createdAt,value
2022-10-01T00:01:15.228Z,6.85
2022-10-01T00:03:42.653Z,6.80
2022-10-01T00:06:19.475Z,6.97
2022-10-01T00:08:49.002Z,7.03
2022-10-01T00:11:24.432Z,6.88
2022-10-01T00:13:52.227Z,7.95
2022-10-01T00:16:21.879Z,7.63
2022-10-01T00:18:49.404Z,7.80
2022-10-01T00:21:21.601Z,9.05
2022-10-01T00:23:53.253Z,8.40
2022-10-01T00:26:22.109Z,9.00
2022-10-01T00:28:56.618Z,9.27
2022-10-01T00:31:23.503Z,9.25
2022-10-01T00:33:53.709Z,8.18
2022-10-01T00:36:20.605Z,9.48
2022-10-01T00:38:48.270Z,7.65
2022-10-01T00:41:17.329Z,6.95
2022-10-01T00:43:54.883Z,7.28
2022-10-01T00:46:42.343Z,6.72
2022-10-01T00:49:19.037Z,8.95
2022-10-01T00:51:50.789Z,9.90
2022-10-01T00:54:22.356Z,10.90
2022-10-01T00:56:53.584Z,11.40
2022-10-01T00:59:20.650Z,9.95
2022-10-01T01:01:47.330Z,10.38
2022-10-01T01:04:16.922Z,11.18
2022-10-01T01:06:57.826Z,10.07
2022-10-01T01:09:30.571Z,9.40
2022-10-01T01:12:22.077Z,8.68
2022-10-01T01:15:04.802Z,7.65
2022-10-01T01:17:52.977Z,7.88
2022-10-01T01:20:34.737Z,7.25
2022-10-01T01:23:04.275Z,7.57
2022-10-01T01:25:43.053Z,7.05
2022-10-01T01:28:44.030Z,7.45
2022-10-01T01:31:16.210Z,8.52
2022-10-01T01:33:46.556Z,6.38
2022-10-01T01:36:17.585Z,6.75
2022-10-01T01:38:54.853Z,8.13
2022-10-01T01:41:24.717Z,9.32
2022-10-01T01:46:21.048Z,7.45
2022-10-01T01:48:51.525Z,8.75
2022-10-01T01:51:28.016Z,10.13
2022-10-01T01:53:54.770Z,14.48
2022-10-01T01:56:21.474Z,10.20
2022-10-01T01:58:48.146Z,13.93
2022-10-01T02:01:34.780Z,12.60
2022-10-01T02:04:45.561Z,9.65
2022-10-01T02:07:25.485Z,9.73
2022-10-01T02:10:20.684Z,11.20
2022-10-01T02:12:54.900Z,13.15
2022-10-01T02:15:37.168Z,11.43
2022-10-01T02:18:16.677Z,11.38
2022-10-01T02:20:50.675Z,14.25
2022-10-01T02:23:25.450Z,11.85
2022-10-01T02:25:58.369Z,12.13
2022-10-01T02:28:25.298Z,12.98
2022-10-01T02:30:54.290Z,12.80
2022-10-01T02:33:31.053Z,10.80
2022-10-01T02:35:59.950Z,10.55
2022-10-01T02:38:28.409Z,11.03
2022-10-01T02:41:01.088Z,10.80
2022-10-01T02:43:34.028Z,9.35
2022-10-01T02:46:07.552Z,9.93
2022-10-01T02:48:34.285Z,11.13
2022-10-01T02:51:10.438Z,10.95
2022-10-01T02:53:44.473Z,9.40
2022-10-01T02:56:14.755Z,9.00
2022-10-01T02:58:41.997Z,8.85
2022-10-01T03:01:08.590Z,9.80
2022-10-01T03:03:35.233Z,9.93
2022-10-01T03:06:01.748Z,11.60
2022-10-01T03:08:28.258Z,11.45
2022-10-01T03:10:54.796Z,12.95
2022-10-01T03:13:23.454Z,12.32
2022-10-01T03:15:50.052Z,14.85
2022-10-01T03:18:16.648Z,17.15
2022-10-01T03:20:43.296Z,16.95
2022-10-01T03:23:09.814Z,14.38
2022-10-01T03:25:36.503Z,12.43
2022-10-01T03:28:03.036Z,11.73
2022-10-01T03:30:30.353Z,10.07
2022-10-01T03:32:56.876Z,12.57
2022-10-01T03:35:24.940Z,16.30
2022-10-01T03:37:51.503Z,10.93
2022-10-01T03:40:18.038Z,11.02
2022-10-01T03:42:44.521Z,14.35
2022-10-01T03:45:11.105Z,9.93
2022-10-01T03:47:37.778Z,11.43
2022-10-01T03:50:04.697Z,10.95
2022-10-01T03:52:31.206Z,10.35
2022-10-01T03:54:57.741Z,9.95
2022-10-01T03:57:24.256Z,11.50
2022-10-01T03:59:50.757Z,12.00
2022-10-01T04:02:17.406Z,11.73
2022-10-01T04:04:43.990Z,13.27
2022-10-01T04:07:10.491Z,12.63
2022-10-01T04:09:38.740Z,12.50
2022-10-01T04:12:05.827Z,11.38
2022-10-01T04:14:32.418Z,12.63
2022-10-01T04:16:59.106Z,12.60
2022-10-01T04:19:25.710Z,13.60
2022-10-01T04:21:52.289Z,13.43
2022-10-01T04:24:18.916Z,12.93
2022-10-01T04:26:45.573Z,11.50
2022-10-01T04:29:12.140Z,11.88
2022-10-01T04:31:40.390Z,11.88
2022-10-01T04:34:07.124Z,10.80
2022-10-01T04:36:33.744Z,11.05
2022-10-01T04:39:02.393Z,11.85
2022-10-01T04:41:30.868Z,12.18
2022-10-01T04:44:00.093Z,13.88
2022-10-01T04:46:28.240Z,13.90
2022-10-01T04:48:54.867Z,16.63
2022-10-01T04:51:21.481Z,15.80
2022-10-01T04:53:48.187Z,14.82
2022-10-01T04:56:14.763Z,13.77
2022-10-01T04:58:42.013Z,14.07
2022-10-01T05:01:08.752Z,14.55
2022-10-01T05:03:35.616Z,15.48
2022-10-01T05:06:02.289Z,19.02
2022-10-01T05:08:29.341Z,15.43
2022-10-01T05:10:55.929Z,14.48
2022-10-01T05:13:22.578Z,17.30
2022-10-01T05:15:52.244Z,24.05
2022-10-01T05:20:45.721Z,23.02
2022-10-01T05:23:12.300Z,24.80
2022-10-01T05:25:38.910Z,23.67
2022-10-01T05:28:05.939Z,27.75
2022-10-01T05:30:33.515Z,29.00
2022-10-01T05:33:02.363Z,28.70
2022-10-01T05:35:29.472Z,28.67
2022-10-01T05:38:01.006Z,27.80
2022-10-01T05:40:28.865Z,25.58
2022-10-01T05:43:00.063Z,26.95
2022-10-01T05:45:31.349Z,27.25
2022-10-01T05:48:05.983Z,26.77
2022-10-01T05:50:35.500Z,25.98
2022-10-01T05:53:02.876Z,25.48
2022-10-01T05:55:33.304Z,24.77
2022-10-01T05:58:10.499Z,21.70
2022-10-01T06:00:38.938Z,21.42
2022-10-01T06:03:06.671Z,22.33
2022-10-01T06:05:35.389Z,21.55
2022-10-01T06:08:05.213Z,22.35
2022-10-01T06:13:01.129Z,18.33
2022-10-01T06:15:28.428Z,18.10
2022-10-01T06:17:55.071Z,16.63
2022-10-01T06:20:21.758Z,18.63
2022-10-01T06:22:56.421Z,17.65
2022-10-01T06:25:23.839Z,17.42
2022-10-01T06:27:58.798Z,18.15
2022-10-01T06:30:27.285Z,15.52
2022-10-01T06:33:09.088Z,14.85
2022-10-01T06:35:39.867Z,16.92
2022-10-01T06:38:06.708Z,15.07
2022-10-01T06:40:33.346Z,16.45
2022-10-01T06:43:00.021Z,15.98
2022-10-01T06:45:28.191Z,15.80
2022-10-01T06:48:04.182Z,18.23
2022-10-01T06:50:32.253Z,18.45
2022-10-01T06:53:00.300Z,18.35
2022-10-01T06:55:32.212Z,19.50
2022-10-01T06:58:00.911Z,17.60
2022-10-01T07:00:30.790Z,15.02
2022-10-01T07:02:57.843Z,14.43
2022-10-01T07:05:25.772Z,13.65
2022-10-01T07:07:53.674Z,10.43
2022-10-01T07:10:21.693Z,9.38
2022-10-01T07:12:49.578Z,8.80
2022-10-01T07:15:18.212Z,9.50
2022-10-01T07:17:47.035Z,8.20
2022-10-01T07:20:14.898Z,7.60
2022-10-01T07:22:41.529Z,8.55
2022-10-01T07:25:08.587Z,8.27
2022-10-01T07:27:35.291Z,9.13
2022-10-01T07:30:02.008Z,8.18
2022-10-01T07:32:31.696Z,9.10
2022-10-01T07:37:25.405Z,6.70
2022-10-01T07:39:52.063Z,6.50
2022-10-01T07:42:18.721Z,5.57
2022-10-01T07:44:45.365Z,5.13
2022-10-01T07:47:12.250Z,5.05
2022-10-01T07:49:38.862Z,4.97
2022-10-01T07:52:10.898Z,4.63
2022-10-01T07:54:39.677Z,4.82
2022-10-01T07:57:06.272Z,4.53
2022-10-01T07:59:33.272Z,5.00
2022-10-01T08:02:01.045Z,4.82
2022-10-01T08:04:46.240Z,5.20
2022-10-01T08:07:12.928Z,5.00
2022-10-01T08:09:39.842Z,4.90
2022-10-01T08:12:07.078Z,5.15
2022-10-01T08:14:33.993Z,4.97
2022-10-01T08:17:00.698Z,4.40
2022-10-01T08:19:27.380Z,4.82
2022-10-01T08:21:53.984Z,4.22
2022-10-01T08:24:20.829Z,4.28
2022-10-01T08:26:57.998Z,4.90
2022-10-01T08:29:24.643Z,3.80
2022-10-01T08:31:51.328Z,3.25
2022-10-01T08:34:18.879Z,4.22
2022-10-01T08:36:45.836Z,3.83
2022-10-01T08:39:13.777Z,3.78
2022-10-01T08:42:11.096Z,4.28
2022-10-01T08:44:44.033Z,4.20
2022-10-01T08:47:28.132Z,3.85
2022-10-01T08:50:00.450Z,4.05
2022-10-01T08:52:30.810Z,3.78
2022-10-01T08:55:20.880Z,3.72
2022-10-01T08:57:52.255Z,3.97
2022-10-01T09:00:20.364Z,3.58
2022-10-01T09:02:48.225Z,4.53
2022-10-01T09:05:51.333Z,6.85
2022-10-01T09:08:43.794Z,6.18
2022-10-01T09:11:35.971Z,4.70
2022-10-01T09:14:11.736Z,3.67
2022-10-01T09:17:01.739Z,3.92
2022-10-01T09:19:55.145Z,3.97
2022-10-01T09:22:34.386Z,3.72
2022-10-01T09:25:11.439Z,3.70
2022-10-01T09:27:38.957Z,5.57
2022-10-01T09:30:12.414Z,5.05
2022-10-01T09:32:45.004Z,3.90
2022-10-01T09:35:47.164Z,3.90
2022-10-01T09:38:47.133Z,3.65
2022-10-01T09:41:14.831Z,3.50
2022-10-01T09:43:43.950Z,3.67
2022-10-01T09:46:15.217Z,3.75
2022-10-01T09:48:41.843Z,4.32
2022-10-01T09:51:22.487Z,4.60
2022-10-01T09:54:43.273Z,9.27
2022-10-01T09:57:14.228Z,24.48
2022-10-01T09:59:50.351Z,9.20
2022-10-01T10:02:27.836Z,5.00
2022-10-01T10:05:01.856Z,4.20
2022-10-01T10:07:32.441Z,4.07
2022-10-01T10:10:20.063Z,4.45
2022-10-01T10:12:53.772Z,4.18
2022-10-01T10:15:23.247Z,4.20
2022-10-01T10:20:36.229Z,4.03
2022-10-01T10:23:29.452Z,4.13
2022-10-01T10:26:02.918Z,4.70
2022-10-01T10:28:44.264Z,4.57
2022-10-01T10:31:19.282Z,3.85
2022-10-01T10:34:04.984Z,4.40
2022-10-01T10:36:36.119Z,4.65
2022-10-01T10:39:06.346Z,4.07
2022-10-01T10:41:34.510Z,4.20
2022-10-01T10:44:04.762Z,10.18
2022-10-01T10:46:34.924Z,7.22
2022-10-01T10:49:08.745Z,5.75
2022-10-01T10:51:56.141Z,4.60
2022-10-01T10:54:29.318Z,4.72
2022-10-01T10:57:02.544Z,4.93
2022-10-01T10:59:32.180Z,5.10
2022-10-01T11:04:39.813Z,5.13
2022-10-01T11:07:07.009Z,4.63
2022-10-01T11:09:58.507Z,4.85
2022-10-01T11:12:45.959Z,4.25
2022-10-01T11:15:45.591Z,5.03
2022-10-01T11:18:33.935Z,5.30
2022-10-01T11:21:28.816Z,5.07
2022-10-01T11:24:16.872Z,5.15
2022-10-01T11:26:55.849Z,5.13
2022-10-01T11:29:54.266Z,4.90
2022-10-01T11:32:36.063Z,4.15
2022-10-01T11:35:22.212Z,5.38
2022-10-01T11:38:07.658Z,5.07
2022-10-01T11:40:42.823Z,4.97
2022-10-01T11:43:33.187Z,5.47
2022-10-01T11:46:18.010Z,4.60
2022-10-01T11:48:53.095Z,6.20
2022-10-01T11:51:29.216Z,7.10
2022-10-01T11:54:06.927Z,8.30
2022-10-01T11:57:04.175Z,13.05
2022-10-01T11:59:39.504Z,4.70
2022-10-01T12:02:26.113Z,5.15
2022-10-01T12:05:00.092Z,6.28
2022-10-01T12:07:29.670Z,6.03
2022-10-01T12:12:48.421Z,7.10
2022-10-01T12:15:24.109Z,6.20
2022-10-01T12:17:59.962Z,5.53
2022-10-01T12:20:41.947Z,5.75
2022-10-01T12:23:17.920Z,5.97
2022-10-01T12:25:54.521Z,6.40
2022-10-01T12:28:52.096Z,7.20
2022-10-01T12:31:35.630Z,5.90
2022-10-01T12:34:24.201Z,9.35
2022-10-01T12:37:07.743Z,21.98
2022-10-01T12:39:40.615Z,11.80
2022-10-01T12:42:42.924Z,6.50
2022-10-01T12:45:24.743Z,7.78
2022-10-01T12:48:18.158Z,6.00
2022-10-01T12:51:14.295Z,5.22
2022-10-01T12:53:54.968Z,6.38
2022-10-01T12:56:33.590Z,6.82
2022-10-01T12:59:06.344Z,5.73
2022-10-01T13:01:42.198Z,5.65
2022-10-01T13:04:46.376Z,6.32
2022-10-01T13:07:46.913Z,7.18
2022-10-01T13:10:14.556Z,8.98
2022-10-01T13:13:12.305Z,10.00
2022-10-01T13:15:42.812Z,9.65
2022-10-01T13:18:26.439Z,11.98
2022-10-01T13:20:59.269Z,16.15
2022-10-01T13:23:55.241Z,16.90
2022-10-01T13:26:40.250Z,25.60
2022-10-01T13:29:25.080Z,23.83
2022-10-01T13:31:57.039Z,26.02
2022-10-01T13:34:41.663Z,23.60
2022-10-01T13:37:18.477Z,19.17
2022-10-01T13:39:48.475Z,18.42
2022-10-01T13:42:27.173Z,19.33
2022-10-01T13:44:58.053Z,20.40
2022-10-01T13:47:25.514Z,19.10
2022-10-01T13:50:04.821Z,20.02
2022-10-01T13:52:32.816Z,35.45
2022-10-01T13:55:01.509Z,45.55
2022-10-01T13:57:36.484Z,48.40
2022-10-01T14:00:06.531Z,40.00
2022-10-01T14:02:36.819Z,23.83
2022-10-01T14:05:29.921Z,22.88
2022-10-01T14:08:16.710Z,19.63
2022-10-01T14:11:27.491Z,17.00
2022-10-01T14:14:15.037Z,19.00
2022-10-01T14:16:45.363Z,17.95
2022-10-01T14:19:19.888Z,22.00
2022-10-01T14:22:27.407Z,15.63
2022-10-01T14:25:21.247Z,22.45
2022-10-01T14:28:09.207Z,23.30
2022-10-01T14:31:12.717Z,15.60
2022-10-01T14:34:08.956Z,18.23
2022-10-01T14:36:43.111Z,17.85
2022-10-01T14:39:20.282Z,14.60
2022-10-01T14:41:49.389Z,12.85
2022-10-01T14:44:22.153Z,11.95
2022-10-01T14:46:53.629Z,15.45
2022-10-01T14:49:23.623Z,18.25
2022-10-01T14:51:53.981Z,17.95
2022-10-01T14:54:21.236Z,17.83
2022-10-01T14:56:48.797Z,19.65
2022-10-01T14:59:36.800Z,15.27
2022-10-01T15:02:17.408Z,15.60
2022-10-01T15:04:49.405Z,16.10
2022-10-01T15:07:17.309Z,14.73
2022-10-01T15:09:48.023Z,14.75
2022-10-01T15:12:17.392Z,13.82
2022-10-01T15:14:45.457Z,12.10
2022-10-01T15:17:27.445Z,9.95
2022-10-01T15:19:56.657Z,8.75
2022-10-01T15:22:28.090Z,8.43
2022-10-01T15:24:59.653Z,7.70
2022-10-01T15:27:26.543Z,8.38
2022-10-01T15:29:57.404Z,8.77
2022-10-01T15:32:25.474Z,8.57
2022-10-01T15:34:55.080Z,8.82
2022-10-01T15:37:44.786Z,7.75
2022-10-01T15:40:25.347Z,7.43
2022-10-01T15:43:27.613Z,6.60
2022-10-01T15:46:11.327Z,6.72
2022-10-01T15:48:38.301Z,6.75
2022-10-01T15:51:27.572Z,7.35
2022-10-01T15:54:06.120Z,6.85
2022-10-01T15:56:33.077Z,6.97
2022-10-01T15:59:11.086Z,6.63
2022-10-01T16:01:41.226Z,6.43
2022-10-01T16:04:11.888Z,6.38
2022-10-01T16:06:43.374Z,7.45
2022-10-01T16:09:27.894Z,7.07
2022-10-01T16:11:55.191Z,6.30
2022-10-01T16:14:44.286Z,5.95
2022-10-01T16:17:16.972Z,6.30
2022-10-01T16:19:52.257Z,6.80
2022-10-01T16:22:27.648Z,6.72
2022-10-01T16:24:57.709Z,6.63
2022-10-01T16:27:26.639Z,6.60
2022-10-01T16:30:08.458Z,7.20
2022-10-01T16:32:35.521Z,6.68
2022-10-01T16:35:18.949Z,6.68
2022-10-01T16:37:46.104Z,6.38
2022-10-01T16:40:16.174Z,7.30
2022-10-01T16:42:44.542Z,8.10
2022-10-01T16:45:16.939Z,8.20
2022-10-01T16:47:45.180Z,9.00
2022-10-01T16:50:14.556Z,10.15
2022-10-01T16:52:41.483Z,10.05
2022-10-01T16:55:22.768Z,8.27
2022-10-01T16:57:56.094Z,8.57
2022-10-01T17:00:25.762Z,8.80
2022-10-01T17:02:54.274Z,9.45
2022-10-01T17:05:29.205Z,9.32
2022-10-01T17:08:03.642Z,9.77
2022-10-01T17:10:35.850Z,9.70
2022-10-01T17:13:03.767Z,10.57
2022-10-01T17:15:31.157Z,12.00
2022-10-01T17:17:59.396Z,10.30
2022-10-01T17:20:31.521Z,10.52
2022-10-01T17:22:58.619Z,9.60
2022-10-01T17:25:34.213Z,10.40
2022-10-01T17:28:07.164Z,9.75
2022-10-01T17:30:34.845Z,8.90
2022-10-01T17:33:01.631Z,9.68
2022-10-01T17:35:29.805Z,10.35
2022-10-01T17:37:57.167Z,9.85
2022-10-01T17:40:23.890Z,10.60
2022-10-01T17:42:50.552Z,11.35
2022-10-01T17:45:20.329Z,11.88
2022-10-01T17:50:14.973Z,10.43
2022-10-01T17:52:41.735Z,11.18
2022-10-01T17:55:08.992Z,10.02
2022-10-01T17:57:35.673Z,11.90
2022-10-01T18:00:02.776Z,13.98
2022-10-01T18:02:41.543Z,13.80
2022-10-01T18:05:09.858Z,14.02
2022-10-01T18:07:37.270Z,13.35
2022-10-01T18:10:10.125Z,13.27
2022-10-01T18:12:36.883Z,14.35
2022-10-01T18:15:04.101Z,14.38
2022-10-01T18:17:32.335Z,14.68
2022-10-01T18:19:59.321Z,15.80
2022-10-01T18:22:26.619Z,13.85
2022-10-01T18:24:53.310Z,14.77
2022-10-01T18:27:20.038Z,14.70
2022-10-01T18:29:46.694Z,15.80
2022-10-01T18:32:24.629Z,16.10
2022-10-01T18:34:59.475Z,17.38
2022-10-01T18:37:40.317Z,17.75
2022-10-01T18:40:34.651Z,18.63
2022-10-01T18:43:23.664Z,19.92
2022-10-01T18:45:53.404Z,18.75
2022-10-01T18:51:12.743Z,16.77
2022-10-01T18:57:04.737Z,15.68
2022-10-01T19:00:13.113Z,15.18
2022-10-01T19:02:58.583Z,15.38
2022-10-01T19:05:46.043Z,17.08
2022-10-01T19:08:15.410Z,15.75
2022-10-01T19:10:41.993Z,16.67
2022-10-01T19:13:20.527Z,15.20
2022-10-01T19:15:57.143Z,16.42
2022-10-01T19:18:26.824Z,16.83
2022-10-01T19:21:02.786Z,15.85
2022-10-01T19:23:38.703Z,16.77
2022-10-01T19:26:17.583Z,16.48
2022-10-01T19:28:56.519Z,15.53
2022-10-01T19:31:37.637Z,14.75
2022-10-01T19:34:18.658Z,14.25
2022-10-01T19:36:52.476Z,16.70
2022-10-01T19:39:25.769Z,17.00
2022-10-01T19:42:06.805Z,17.92
2022-10-01T19:45:04.813Z,18.45
2022-10-01T19:47:46.015Z,20.17
2022-10-01T19:50:24.140Z,19.90
2022-10-01T19:52:53.984Z,18.25
2022-10-01T19:57:48.885Z,18.88
2022-10-01T20:00:19.530Z,20.70
2022-10-01T20:02:58.226Z,20.30
2022-10-01T20:05:35.174Z,19.83
2022-10-01T20:08:14.176Z,19.83
2022-10-01T20:10:53.468Z,22.58
2022-10-01T20:13:25.770Z,22.40
2022-10-01T20:15:58.446Z,22.95
2022-10-01T20:18:34.017Z,23.48
2022-10-01T20:21:35.644Z,18.83
2022-10-01T20:24:21.208Z,11.30
2022-10-01T20:27:06.954Z,7.40
2022-10-01T20:29:55.888Z,6.55
2022-10-01T20:32:29.917Z,6.17
2022-10-01T20:35:15.320Z,7.82
2022-10-01T20:38:06.984Z,6.90
2022-10-01T20:40:43.202Z,5.57
2022-10-01T20:43:18.193Z,5.70
2022-10-01T20:45:48.442Z,6.45
2022-10-01T20:48:22.663Z,6.88
2022-10-01T20:50:54.156Z,6.38
2022-10-01T20:53:34.936Z,6.13
2022-10-01T20:56:08.001Z,6.15
2022-10-01T20:58:44.473Z,6.03
2022-10-01T21:01:20.507Z,6.68
2022-10-01T21:03:52.303Z,5.60
2022-10-01T21:06:26.610Z,5.55
2022-10-01T21:08:58.909Z,5.72
2022-10-01T21:11:34.871Z,5.03
2022-10-01T21:14:45.642Z,5.28
2022-10-01T21:17:36.543Z,5.25
2022-10-01T21:20:14.138Z,5.28
2022-10-01T21:23:08.528Z,5.90
2022-10-01T21:26:03.061Z,5.82
2022-10-01T21:28:29.673Z,5.85
2022-10-01T21:31:18.083Z,5.32
2022-10-01T21:33:54.288Z,5.90
2022-10-01T21:36:30.865Z,5.63
2022-10-01T21:39:11.012Z,6.32
2022-10-01T21:41:48.329Z,5.65
2022-10-01T21:44:33.116Z,5.57
2022-10-01T21:47:14.212Z,5.40
2022-10-01T21:49:50.132Z,5.68
2022-10-01T21:52:31.428Z,5.95
2022-10-01T21:55:06.040Z,5.28
2022-10-01T21:57:53.870Z,5.03
2022-10-01T22:00:26.397Z,5.25
2022-10-01T22:03:39.776Z,5.70
2022-10-01T22:06:19.510Z,5.43
2022-10-01T22:09:04.367Z,5.00
2022-10-01T22:11:41.017Z,5.13
2022-10-01T22:14:17.542Z,4.55
2022-10-01T22:16:53.347Z,4.18
2022-10-01T22:19:28.651Z,4.38
2022-10-01T22:22:03.302Z,4.07
2022-10-01T22:24:36.740Z,3.80
2022-10-01T22:27:40.137Z,4.10
2022-10-01T22:30:21.816Z,3.53
2022-10-01T22:33:01.287Z,3.92
2022-10-01T22:35:34.055Z,4.07
2022-10-01T22:38:09.921Z,3.92
2022-10-01T22:40:45.616Z,3.67
2022-10-01T22:43:13.806Z,3.78
2022-10-01T22:45:49.499Z,4.07
2022-10-01T22:48:31.505Z,4.00
2022-10-01T22:51:16.771Z,4.28
2022-10-01T22:53:58.669Z,4.40
2022-10-01T22:56:46.777Z,4.65
2022-10-01T22:59:29.974Z,4.90
2022-10-01T23:02:29.008Z,5.57
2022-10-01T23:05:17.171Z,5.00
2022-10-01T23:08:35.212Z,5.32
2022-10-01T23:11:23.525Z,5.45
2022-10-01T23:13:59.115Z,5.60
2022-10-01T23:16:40.721Z,5.65
2022-10-01T23:19:25.588Z,5.57
2022-10-01T23:22:08.366Z,5.70
2022-10-01T23:24:50.173Z,5.80
2022-10-01T23:27:25.603Z,6.18
2022-10-01T23:29:58.108Z,14.77
2022-10-01T23:32:36.409Z,17.42
2022-10-01T23:35:09.280Z,11.07
2022-10-01T23:37:50.376Z,8.50
2022-10-01T23:40:22.478Z,7.78
2022-10-01T23:43:19.317Z,6.70
2022-10-01T23:45:51.991Z,5.22
2022-10-01T23:48:28.203Z,4.78
2022-10-01T23:51:03.572Z,4.70
2022-10-01T23:53:37.709Z,5.03
2022-10-01T23:56:29.370Z,4.10
2022-10-01T23:59:16.400Z,4.22
